createdAt,value
2023-05-10T00:01:51.313Z,14.40
2023-05-10T00:04:18.053Z,14.30
2023-05-10T00:06:44.816Z,14.20
2023-05-10T00:09:11.492Z,14.20
2023-05-10T00:11:38.123Z,14.20
2023-05-10T00:14:04.768Z,14.10
2023-05-10T00:16:31.532Z,14.10
2023-05-10T00:18:58.258Z,14.00
2023-05-10T00:21:24.884Z,14.00
2023-05-10T00:23:51.504Z,14.00
2023-05-10T00:26:18.248Z,13.90
2023-05-10T00:28:44.844Z,13.90
2023-05-10T00:31:11.521Z,13.90
2023-05-10T00:33:38.154Z,13.90
2023-05-10T00:36:05.140Z,13.90
2023-05-10T00:38:31.962Z,13.80
2023-05-10T00:40:58.624Z,13.80
2023-05-10T00:43:25.478Z,13.70
2023-05-10T00:45:52.521Z,13.80
2023-05-10T00:48:19.642Z,13.80
2023-05-10T00:50:46.868Z,13.70
2023-05-10T00:53:13.768Z,13.70
2023-05-10T00:55:40.504Z,13.60
2023-05-10T00:58:07.243Z,13.60
2023-05-10T01:00:34.713Z,13.60
2023-05-10T01:03:02.273Z,13.60
2023-05-10T01:05:29.175Z,13.60
2023-05-10T01:07:57.008Z,13.50
2023-05-10T01:10:23.891Z,13.60
2023-05-10T01:12:51.861Z,13.50
2023-05-10T01:15:19.808Z,13.50
2023-05-10T01:17:48.235Z,13.60
2023-05-10T01:20:16.471Z,13.60
2023-05-10T01:23:03.267Z,13.50
2023-05-10T01:25:48.610Z,13.60
2023-05-10T01:28:48.739Z,13.50
2023-05-10T01:31:32.484Z,13.50
2023-05-10T01:34:11.109Z,13.40
2023-05-10T01:37:06.934Z,13.50
2023-05-10T01:39:44.557Z,13.50
2023-05-10T01:42:15.193Z,13.30
2023-05-10T01:44:57.721Z,13.40
2023-05-10T01:47:47.733Z,13.50
2023-05-10T01:50:22.523Z,13.50
2023-05-10T01:52:55.788Z,13.40
2023-05-10T01:55:26.045Z,13.40
2023-05-10T01:58:03.789Z,13.40
2023-05-10T02:00:32.210Z,13.30
2023-05-10T02:03:01.171Z,13.30
2023-05-10T02:05:31.808Z,13.30
2023-05-10T02:08:00.019Z,13.30
2023-05-10T02:10:28.108Z,13.30
2023-05-10T02:12:55.938Z,13.30
2023-05-10T02:15:25.783Z,13.40
2023-05-10T02:17:55.419Z,13.30
2023-05-10T02:20:24.395Z,13.30
2023-05-10T02:22:53.815Z,13.30
2023-05-10T02:25:22.225Z,13.30
2023-05-10T02:27:49.818Z,13.30
2023-05-10T02:30:17.819Z,13.30
2023-05-10T02:32:45.977Z,13.30
2023-05-10T02:35:13.679Z,13.30
2023-05-10T02:37:41.173Z,13.30
2023-05-10T02:40:09.496Z,13.20
2023-05-10T02:42:39.702Z,13.30
2023-05-10T02:45:12.505Z,13.20
2023-05-10T02:47:39.489Z,13.20
2023-05-10T02:50:06.734Z,13.20
2023-05-10T02:52:52.970Z,13.20
2023-05-10T02:55:27.658Z,13.20
2023-05-10T02:57:59.595Z,13.10
2023-05-10T03:00:26.734Z,13.10
2023-05-10T03:02:54.038Z,13.20
2023-05-10T03:05:21.172Z,13.20
2023-05-10T03:07:48.775Z,13.10
2023-05-10T03:10:15.749Z,13.20
2023-05-10T03:13:36.384Z,13.20
2023-05-10T03:16:13.947Z,13.20
2023-05-10T03:19:02.534Z,13.10
2023-05-10T03:21:30.998Z,13.10
2023-05-10T03:24:08.545Z,13.00
2023-05-10T03:26:35.925Z,13.00
2023-05-10T03:29:04.659Z,13.10
2023-05-10T03:31:31.572Z,13.10
2023-05-10T03:33:58.297Z,13.10
2023-05-10T03:36:25.019Z,13.10
2023-05-10T03:38:51.680Z,13.10
2023-05-10T03:41:18.370Z,13.00
2023-05-10T03:43:45.136Z,13.10
2023-05-10T03:46:11.811Z,13.10
2023-05-10T03:48:38.775Z,13.00
2023-05-10T03:51:05.493Z,13.00
2023-05-10T03:53:32.098Z,13.10
2023-05-10T03:55:58.757Z,13.10
2023-05-10T03:58:25.856Z,13.00
2023-05-10T04:00:53.010Z,13.00
2023-05-10T04:03:19.835Z,12.90
2023-05-10T04:05:46.543Z,13.00
2023-05-10T04:08:13.208Z,13.00
2023-05-10T04:10:40.695Z,13.10
2023-05-10T04:13:07.448Z,13.10
2023-05-10T04:15:34.152Z,13.00
2023-05-10T04:18:01.253Z,13.00
2023-05-10T04:20:28.029Z,12.90
2023-05-10T04:22:54.824Z,13.00
2023-05-10T04:25:21.582Z,13.10
2023-05-10T04:27:48.382Z,13.10
2023-05-10T04:30:15.343Z,13.10
2023-05-10T04:32:42.218Z,13.00
2023-05-10T04:35:10.999Z,13.00
2023-05-10T04:37:37.772Z,12.90
2023-05-10T04:40:04.881Z,13.00
2023-05-10T04:42:31.526Z,13.00
2023-05-10T04:44:58.178Z,12.90
2023-05-10T04:47:24.948Z,12.90
2023-05-10T04:49:51.701Z,12.80
2023-05-10T04:52:18.941Z,12.90
2023-05-10T04:54:45.588Z,12.90
2023-05-10T04:57:12.201Z,12.80
2023-05-10T04:59:38.843Z,12.80
2023-05-10T05:02:06.637Z,12.90
2023-05-10T05:04:33.396Z,12.80
2023-05-10T05:07:00.250Z,12.80
2023-05-10T05:09:26.993Z,12.80
2023-05-10T05:11:53.694Z,12.90
2023-05-10T05:14:21.854Z,12.80
2023-05-10T05:16:48.479Z,12.80
2023-05-10T05:19:15.115Z,12.80
2023-05-10T05:21:41.810Z,12.80
2023-05-10T05:24:09.500Z,12.70
2023-05-10T05:26:36.125Z,12.70
2023-05-10T05:29:03.213Z,12.80
2023-05-10T05:31:30.200Z,12.70
2023-05-10T05:33:57.146Z,12.80
2023-05-10T05:36:23.806Z,12.70
2023-05-10T05:38:50.589Z,12.80
2023-05-10T05:41:17.274Z,12.80
2023-05-10T05:43:43.919Z,12.80
2023-05-10T05:46:10.763Z,12.70
2023-05-10T05:48:37.426Z,12.80
2023-05-10T05:51:06.552Z,12.80
2023-05-10T05:53:34.468Z,12.80
2023-05-10T05:56:01.118Z,12.80
2023-05-10T05:58:27.918Z,12.80
2023-05-10T06:00:54.985Z,12.70
2023-05-10T06:03:21.896Z,12.80
2023-05-10T06:05:48.826Z,12.80
2023-05-10T06:08:15.929Z,12.80
2023-05-10T06:10:42.620Z,12.80
2023-05-10T06:13:09.502Z,12.90
2023-05-10T06:15:36.163Z,12.90
2023-05-10T06:18:03.046Z,12.90
2023-05-10T06:20:32.327Z,12.90
2023-05-10T06:22:59.598Z,12.90
2023-05-10T06:25:26.311Z,12.90
2023-05-10T06:27:57.935Z,13.00
2023-05-10T06:30:28.465Z,12.90
2023-05-10T06:32:55.894Z,13.00
2023-05-10T06:35:22.761Z,13.10
2023-05-10T06:37:50.178Z,13.10
2023-05-10T06:40:17.156Z,13.20
2023-05-10T06:42:45.736Z,13.20
2023-05-10T06:45:12.620Z,13.20
2023-05-10T06:47:39.638Z,13.20
2023-05-10T06:50:07.184Z,13.30
2023-05-10T06:52:33.858Z,13.40
2023-05-10T06:55:01.274Z,13.20
2023-05-10T06:57:31.828Z,13.30
2023-05-10T06:59:59.752Z,13.30
2023-05-10T07:02:26.583Z,13.30
2023-05-10T07:04:53.508Z,13.30
2023-05-10T07:07:20.349Z,13.30
2023-05-10T07:09:47.187Z,13.40
2023-05-10T07:12:15.351Z,13.30
2023-05-10T07:14:42.773Z,13.40
2023-05-10T07:17:09.591Z,13.40
2023-05-10T07:19:36.892Z,13.50
2023-05-10T07:22:03.700Z,13.60
2023-05-10T07:24:30.885Z,13.60
2023-05-10T07:26:57.568Z,13.60
2023-05-10T07:29:24.377Z,13.60
2023-05-10T07:31:51.132Z,13.60
2023-05-10T07:34:17.795Z,13.50
2023-05-10T07:36:44.600Z,13.60
2023-05-10T07:39:12.719Z,13.50
2023-05-10T07:41:43.011Z,13.60
2023-05-10T07:44:09.741Z,13.50
2023-05-10T07:46:36.431Z,13.50
2023-05-10T07:49:03.249Z,13.50
2023-05-10T07:51:29.965Z,13.50
2023-05-10T07:53:56.754Z,13.60
2023-05-10T07:56:25.824Z,13.50
2023-05-10T07:58:52.975Z,13.60
2023-05-10T08:01:19.814Z,13.60
2023-05-10T08:03:46.772Z,13.70
2023-05-10T08:06:13.870Z,13.80
2023-05-10T08:08:40.967Z,13.90
2023-05-10T08:11:07.662Z,13.90
2023-05-10T08:13:34.358Z,14.00
2023-05-10T08:16:01.566Z,14.00
2023-05-10T08:18:28.521Z,14.00
2023-05-10T08:20:55.365Z,14.10
2023-05-10T08:23:21.979Z,14.20
2023-05-10T08:25:48.634Z,14.30
2023-05-10T08:28:15.567Z,14.30
2023-05-10T08:30:42.300Z,14.30
2023-05-10T08:33:08.944Z,14.40
2023-05-10T08:35:35.932Z,14.40
2023-05-10T08:38:02.548Z,14.40
2023-05-10T08:40:29.373Z,14.40
2023-05-10T08:43:09.586Z,14.40
2023-05-10T08:45:42.267Z,14.30
2023-05-10T08:48:10.746Z,14.20
2023-05-10T08:50:39.065Z,14.20
2023-05-10T08:53:09.986Z,14.10
2023-05-10T08:55:41.033Z,14.10
2023-05-10T08:58:08.179Z,14.10
2023-05-10T09:00:35.920Z,14.20
2023-05-10T09:03:05.230Z,14.30
2023-05-10T09:05:32.069Z,14.20
2023-05-10T09:08:01.313Z,14.20
2023-05-10T09:10:30.344Z,14.20
2023-05-10T09:12:59.429Z,14.20
2023-05-10T09:15:26.725Z,14.40
2023-05-10T09:17:53.792Z,14.50
2023-05-10T09:20:20.651Z,14.40
2023-05-10T09:22:47.406Z,14.50
2023-05-10T09:25:18.319Z,14.50
2023-05-10T09:27:47.014Z,14.40
2023-05-10T09:30:30.344Z,14.40
2023-05-10T09:32:58.521Z,14.40
2023-05-10T09:35:29.656Z,14.40
2023-05-10T09:37:58.528Z,14.30
2023-05-10T09:40:27.265Z,14.40
2023-05-10T09:42:57.869Z,14.40
2023-05-10T09:45:26.099Z,14.50
2023-05-10T09:47:52.965Z,14.60
2023-05-10T09:50:20.565Z,14.60
2023-05-10T09:52:52.579Z,14.70
2023-05-10T09:55:22.790Z,14.80
2023-05-10T09:57:50.990Z,14.90
2023-05-10T10:00:19.752Z,15.00
2023-05-10T10:02:48.301Z,15.10
2023-05-10T10:05:16.062Z,15.20
2023-05-10T10:07:43.003Z,15.30
2023-05-10T10:10:13.518Z,15.40
2023-05-10T10:12:41.738Z,15.40
2023-05-10T10:15:09.976Z,15.50
2023-05-10T10:17:39.038Z,15.60
2023-05-10T10:20:06.159Z,15.50
2023-05-10T10:22:32.784Z,15.40
2023-05-10T10:25:00.350Z,15.40
2023-05-10T10:27:44.282Z,15.30
2023-05-10T10:30:29.175Z,15.30
2023-05-10T10:33:27.236Z,15.30
2023-05-10T10:35:56.412Z,15.30
2023-05-10T10:38:23.777Z,15.40
2023-05-10T10:41:03.772Z,15.50
2023-05-10T10:43:31.238Z,15.40
2023-05-10T10:46:18.072Z,15.40
2023-05-10T10:49:09.428Z,15.40
2023-05-10T10:51:40.445Z,15.40
2023-05-10T10:54:13.745Z,15.40
2023-05-10T10:56:40.500Z,15.50
2023-05-10T10:59:08.488Z,15.40
2023-05-10T11:01:38.467Z,15.30
2023-05-10T11:04:05.344Z,15.40
2023-05-10T11:06:34.998Z,15.30
2023-05-10T11:09:09.378Z,15.40
2023-05-10T11:11:37.252Z,15.30
2023-05-10T11:14:06.836Z,15.10
2023-05-10T11:16:45.913Z,15.10
2023-05-10T11:19:14.345Z,15.00
2023-05-10T11:21:52.511Z,15.10
2023-05-10T11:24:27.864Z,15.20
2023-05-10T11:26:54.914Z,15.30
2023-05-10T11:29:21.754Z,15.40
2023-05-10T11:31:49.587Z,15.60
2023-05-10T11:34:34.689Z,15.60
2023-05-10T11:37:02.146Z,15.70
2023-05-10T11:39:30.615Z,15.80
2023-05-10T11:41:58.552Z,15.80
2023-05-10T11:44:31.299Z,15.90
2023-05-10T11:47:03.141Z,15.90
2023-05-10T11:49:30.038Z,15.90
2023-05-10T11:52:07.830Z,15.90
2023-05-10T11:54:35.946Z,16.00
2023-05-10T11:57:02.867Z,16.00
2023-05-10T11:59:29.531Z,16.00
2023-05-10T12:01:56.609Z,16.10
2023-05-10T12:04:23.578Z,16.10
2023-05-10T12:06:50.299Z,16.10
2023-05-10T12:09:19.176Z,16.10
2023-05-10T12:11:49.817Z,16.20
2023-05-10T12:14:16.845Z,16.10
2023-05-10T12:16:44.465Z,16.20
2023-05-10T12:19:11.717Z,16.20
2023-05-10T12:21:39.672Z,16.20
2023-05-10T12:24:06.510Z,16.10
2023-05-10T12:26:33.609Z,16.10
2023-05-10T12:29:14.293Z,16.10
2023-05-10T12:31:58.027Z,16.00
2023-05-10T12:34:32.190Z,15.90
2023-05-10T12:36:59.694Z,15.90
2023-05-10T12:39:26.479Z,15.80
2023-05-10T12:41:53.619Z,15.70
2023-05-10T12:44:20.483Z,15.70
2023-05-10T12:46:47.131Z,15.70
2023-05-10T12:49:13.798Z,15.70
2023-05-10T12:51:40.472Z,15.70
2023-05-10T12:54:07.074Z,15.70
2023-05-10T12:56:33.717Z,15.70
2023-05-10T12:59:00.513Z,15.70
2023-05-10T13:01:27.196Z,15.80
2023-05-10T13:03:54.041Z,15.80
2023-05-10T13:06:20.839Z,15.90
2023-05-10T13:08:47.456Z,15.80
2023-05-10T13:11:17.555Z,15.90
2023-05-10T13:13:44.232Z,16.00
2023-05-10T13:16:10.981Z,16.00
2023-05-10T13:18:37.636Z,16.20
2023-05-10T13:21:06.269Z,16.30
2023-05-10T13:23:32.945Z,16.30
2023-05-10T13:25:59.647Z,16.40
2023-05-10T13:28:27.254Z,16.40
2023-05-10T13:30:53.924Z,16.50
2023-05-10T13:33:20.621Z,16.50
2023-05-10T13:35:47.315Z,16.50
2023-05-10T13:38:14.649Z,16.60
2023-05-10T13:40:41.384Z,16.60
2023-05-10T13:43:08.023Z,16.60
2023-05-10T13:45:34.657Z,16.70
2023-05-10T13:48:01.362Z,16.80
2023-05-10T13:50:28.102Z,16.80
2023-05-10T13:52:55.032Z,16.80
2023-05-10T13:55:21.690Z,16.90
2023-05-10T13:57:48.529Z,16.90
2023-05-10T14:00:16.098Z,16.90
2023-05-10T14:02:42.945Z,17.00
2023-05-10T14:05:09.780Z,16.90
2023-05-10T14:07:36.521Z,17.00
2023-05-10T14:10:03.834Z,17.00
2023-05-10T14:12:30.721Z,17.00
2023-05-10T14:14:59.024Z,17.00
2023-05-10T14:17:25.865Z,17.00
2023-05-10T14:19:53.910Z,17.00
2023-05-10T14:22:20.509Z,17.00
2023-05-10T14:24:47.842Z,16.90
2023-05-10T14:27:15.054Z,16.90
2023-05-10T14:29:41.697Z,16.90
2023-05-10T14:32:08.534Z,16.80
2023-05-10T14:34:35.284Z,16.90
2023-05-10T14:37:02.165Z,16.90
2023-05-10T14:39:30.701Z,16.80
2023-05-10T14:41:57.782Z,16.90
2023-05-10T14:44:24.778Z,16.90
2023-05-10T14:46:51.819Z,16.90
2023-05-10T14:49:18.466Z,16.90
2023-05-10T14:51:45.951Z,16.90
2023-05-10T14:54:12.568Z,16.90
2023-05-10T14:56:39.304Z,16.80
2023-05-10T14:59:06.002Z,16.80
2023-05-10T15:01:33.923Z,16.80
2023-05-10T15:04:01.564Z,16.90
2023-05-10T15:06:33.125Z,16.90
2023-05-10T15:08:59.880Z,16.80
2023-05-10T15:11:26.864Z,16.80
2023-05-10T15:13:53.955Z,16.80
2023-05-10T15:16:20.677Z,16.80
2023-05-10T15:18:47.424Z,16.70
2023-05-10T15:21:14.063Z,16.80
2023-05-10T15:23:40.714Z,16.70
2023-05-10T15:26:07.410Z,16.60
2023-05-10T15:28:34.574Z,16.60
2023-05-10T15:31:01.421Z,16.70
2023-05-10T15:33:28.503Z,16.60
2023-05-10T15:35:55.159Z,16.60
2023-05-10T15:38:21.810Z,16.60
2023-05-10T15:40:48.465Z,16.60
2023-05-10T15:43:16.100Z,16.60
2023-05-10T15:45:42.718Z,16.60
2023-05-10T15:48:09.442Z,16.60
2023-05-10T15:50:36.059Z,16.50
2023-05-10T15:53:02.993Z,16.50
2023-05-10T15:55:29.774Z,16.50
2023-05-10T15:57:56.470Z,16.50
2023-05-10T16:00:23.174Z,16.50
2023-05-10T16:02:53.130Z,16.50
2023-05-10T16:05:20.156Z,16.50
2023-05-10T16:07:47.620Z,16.40
2023-05-10T16:10:14.282Z,16.40
2023-05-10T16:12:41.308Z,16.40
2023-05-10T16:15:09.340Z,16.40
2023-05-10T16:17:36.088Z,16.40
2023-05-10T16:20:03.306Z,16.40
2023-05-10T16:22:30.373Z,16.40
2023-05-10T16:24:57.668Z,16.50
2023-05-10T16:27:24.734Z,16.40
2023-05-10T16:29:51.492Z,16.40
2023-05-10T16:32:18.107Z,16.40
2023-05-10T16:34:44.739Z,16.40
2023-05-10T16:37:11.420Z,16.30
2023-05-10T16:39:38.080Z,16.20
2023-05-10T16:42:04.784Z,16.30
2023-05-10T16:44:31.455Z,16.30
2023-05-10T16:46:58.136Z,16.30
2023-05-10T16:49:26.209Z,16.30
2023-05-10T16:51:53.053Z,16.30
2023-05-10T16:54:21.344Z,16.40
2023-05-10T16:56:48.093Z,16.30
2023-05-10T16:59:14.715Z,16.20
2023-05-10T17:01:41.615Z,16.30
2023-05-10T17:04:08.570Z,16.20
2023-05-10T17:06:36.954Z,16.20
2023-05-10T17:09:05.587Z,16.20
2023-05-10T17:11:32.773Z,16.20
2023-05-10T17:14:01.024Z,16.20
2023-05-10T17:16:27.762Z,16.20
2023-05-10T17:18:54.428Z,16.30
2023-05-10T17:21:21.169Z,16.20
2023-05-10T17:23:47.959Z,16.20
2023-05-10T17:26:15.196Z,16.10
2023-05-10T17:28:44.342Z,16.10
2023-05-10T17:31:11.697Z,16.10
2023-05-10T17:33:38.684Z,16.10
2023-05-10T17:36:05.702Z,16.10
2023-05-10T17:38:32.351Z,16.10
2023-05-10T17:40:59.005Z,16.10
2023-05-10T17:43:26.124Z,16.10
2023-05-10T17:45:52.965Z,16.20
2023-05-10T17:48:19.800Z,16.10
2023-05-10T17:50:46.830Z,16.10
2023-05-10T17:53:13.533Z,16.10
2023-05-10T17:55:41.362Z,16.10
2023-05-10T17:58:09.628Z,16.10
2023-05-10T18:00:36.785Z,16.10
2023-05-10T18:03:04.677Z,16.10
2023-05-10T18:05:35.312Z,16.00
2023-05-10T18:08:02.161Z,16.00
2023-05-10T18:10:28.972Z,16.00
2023-05-10T18:12:56.244Z,16.00
2023-05-10T18:15:22.978Z,15.90
2023-05-10T18:17:49.880Z,15.90
2023-05-10T18:20:16.602Z,15.90
2023-05-10T18:22:44.159Z,15.90
2023-05-10T18:25:10.885Z,15.90
2023-05-10T18:27:37.529Z,15.90
2023-05-10T18:30:06.125Z,16.00
2023-05-10T18:32:32.860Z,15.90
2023-05-10T18:34:59.550Z,15.90
2023-05-10T18:37:26.265Z,15.90
2023-05-10T18:39:53.062Z,15.80
2023-05-10T18:42:20.608Z,15.80
2023-05-10T18:44:47.382Z,15.80
2023-05-10T18:47:14.301Z,15.80
2023-05-10T18:49:40.920Z,15.70
2023-05-10T18:52:09.401Z,15.70
2023-05-10T18:54:36.035Z,15.60
2023-05-10T18:57:02.843Z,15.60
2023-05-10T18:59:29.513Z,15.60
2023-05-10T19:01:57.475Z,15.60
2023-05-10T19:04:24.557Z,15.60
2023-05-10T19:06:51.526Z,15.50
2023-05-10T19:09:20.052Z,15.50
2023-05-10T19:11:46.764Z,15.50
2023-05-10T19:14:13.443Z,15.50
2023-05-10T19:16:41.716Z,15.50
2023-05-10T19:19:09.540Z,15.40
2023-05-10T19:21:36.403Z,15.50
2023-05-10T19:24:03.253Z,15.50
2023-05-10T19:26:30.108Z,15.30
2023-05-10T19:28:57.625Z,15.30
2023-05-10T19:31:24.616Z,15.30
2023-05-10T19:33:51.438Z,15.30
2023-05-10T19:36:18.142Z,15.30
2023-05-10T19:38:44.846Z,15.30
2023-05-10T19:41:12.814Z,15.20
2023-05-10T19:43:39.638Z,15.20
2023-05-10T19:46:06.639Z,15.20
2023-05-10T19:48:33.246Z,15.20
2023-05-10T19:51:01.687Z,15.20
2023-05-10T19:53:28.855Z,15.10
2023-05-10T19:55:56.391Z,15.00
2023-05-10T19:58:23.519Z,15.00
2023-05-10T20:00:50.212Z,15.00
2023-05-10T20:03:16.939Z,15.00
2023-05-10T20:05:43.564Z,14.90
2023-05-10T20:08:10.331Z,14.90
2023-05-10T20:10:37.092Z,14.90
2023-05-10T20:13:03.708Z,14.90
2023-05-10T20:15:30.417Z,14.90
2023-05-10T20:17:57.214Z,14.80
2023-05-10T20:20:23.925Z,14.70
2023-05-10T20:22:50.796Z,14.80
2023-05-10T20:25:18.395Z,14.80
2023-05-10T20:27:45.435Z,14.80
2023-05-10T20:30:12.518Z,14.70
2023-05-10T20:32:39.607Z,14.70
2023-05-10T20:35:07.194Z,14.70
2023-05-10T20:37:34.038Z,14.60
2023-05-10T20:40:00.744Z,14.60
2023-05-10T20:42:27.480Z,14.60
2023-05-10T20:44:54.191Z,14.50
2023-05-10T20:47:23.285Z,14.50
2023-05-10T20:49:50.763Z,14.60
2023-05-10T20:52:17.509Z,14.60
2023-05-10T20:54:44.166Z,14.60
2023-05-10T20:57:12.963Z,14.60
2023-05-10T20:59:39.623Z,14.60
2023-05-10T21:02:06.700Z,14.50
2023-05-10T21:04:33.390Z,14.50
2023-05-10T21:07:00.117Z,14.50
2023-05-10T21:09:26.739Z,14.40
2023-05-10T21:11:53.595Z,14.50
2023-05-10T21:14:20.840Z,14.40
2023-05-10T21:16:47.652Z,14.40
2023-05-10T21:19:14.327Z,14.40
2023-05-10T21:21:40.985Z,14.40
2023-05-10T21:24:07.766Z,14.40
2023-05-10T21:26:34.688Z,14.30
2023-05-10T21:29:01.378Z,14.40
2023-05-10T21:31:28.573Z,14.30
2023-05-10T21:33:55.341Z,14.30
2023-05-10T21:36:22.092Z,14.30
2023-05-10T21:38:50.502Z,14.30
2023-05-10T21:41:17.551Z,14.30
2023-05-10T21:43:44.214Z,14.30
2023-05-10T21:46:13.083Z,14.40
2023-05-10T21:48:39.879Z,14.30
2023-05-10T21:51:07.307Z,14.20
2023-05-10T21:53:35.772Z,14.20
2023-05-10T21:56:02.528Z,14.20
2023-05-10T21:58:29.175Z,14.20
2023-05-10T22:00:56.057Z,14.10
2023-05-10T22:03:22.918Z,14.20
2023-05-10T22:05:49.781Z,14.10
2023-05-10T22:08:16.559Z,14.10
2023-05-10T22:10:43.225Z,14.10
2023-05-10T22:13:09.844Z,14.10
2023-05-10T22:15:36.748Z,14.00
2023-05-10T22:18:03.883Z,14.10
2023-05-10T22:20:30.600Z,14.00
2023-05-10T22:22:57.291Z,14.00
2023-05-10T22:25:23.954Z,14.10
2023-05-10T22:27:50.570Z,14.00
2023-05-10T22:30:17.971Z,14.00
2023-05-10T22:32:44.903Z,14.00
2023-05-10T22:35:11.708Z,14.00
2023-05-10T22:37:38.363Z,13.80
2023-05-10T22:40:05.909Z,13.90
2023-05-10T22:42:33.184Z,13.90
2023-05-10T22:44:59.877Z,13.80
2023-05-10T22:47:26.650Z,13.80
2023-05-10T22:49:55.206Z,13.80
2023-05-10T22:52:21.900Z,13.80
2023-05-10T22:54:48.597Z,13.80
2023-05-10T22:57:16.162Z,13.80
2023-05-10T22:59:43.301Z,13.80
2023-05-10T23:02:10.157Z,13.80
2023-05-10T23:04:37.124Z,13.80
2023-05-10T23:07:03.794Z,13.80
2023-05-10T23:09:30.426Z,13.80
2023-05-10T23:11:59.923Z,13.70
2023-05-10T23:14:26.680Z,13.80
2023-05-10T23:16:53.311Z,13.80
2023-05-10T23:19:19.896Z,13.80
2023-05-10T23:21:47.036Z,13.80
2023-05-10T23:24:13.689Z,13.80
2023-05-10T23:26:40.442Z,13.80
2023-05-10T23:29:07.160Z,13.80
2023-05-10T23:31:33.885Z,13.70
2023-05-10T23:34:00.531Z,13.70
2023-05-10T23:36:27.176Z,13.80
2023-05-10T23:38:53.788Z,13.70
2023-05-10T23:41:20.436Z,13.70
2023-05-10T23:43:47.097Z,13.70
2023-05-10T23:46:13.801Z,13.70
2023-05-10T23:48:40.548Z,13.70
2023-05-10T23:51:08.203Z,13.70
2023-05-10T23:53:34.962Z,13.70
2023-05-10T23:56:01.643Z,13.60
2023-05-10T23:58:28.315Z,13.60
